createdAt,value
2019-04-03T00:01:09.669Z,70.03
2019-04-03T00:03:36.510Z,69.17
2019-04-03T00:06:05.123Z,68.02
2019-04-03T00:08:30.003Z,68.22
2019-04-03T00:10:56.795Z,69.02
2019-04-03T00:13:23.613Z,66.98
2019-04-03T00:15:50.250Z,67.28
2019-04-03T00:18:17.032Z,68.09
2019-04-03T00:20:43.767Z,68.41
2019-04-03T00:23:10.494Z,68.14
2019-04-03T00:25:37.261Z,68.22
2019-04-03T00:28:04.060Z,68.09
2019-04-03T00:30:30.818Z,67.91
2019-04-03T00:32:57.615Z,68.49
2019-04-03T00:35:24.343Z,68.34
2019-04-03T00:37:52.989Z,68.22
2019-04-03T00:40:17.846Z,68.79
2019-04-03T00:42:44.588Z,68.43
2019-04-03T00:45:11.352Z,68.70
2019-04-03T00:47:38.086Z,68.73
2019-04-03T00:50:04.933Z,69.60
2019-04-03T00:52:31.690Z,69.94
2019-04-03T00:54:58.595Z,69.56
2019-04-03T00:57:26.332Z,69.82
2019-04-03T00:59:51.928Z,68.69
2019-04-03T01:02:18.662Z,69.40
2019-04-03T01:04:45.409Z,69.61
2019-04-03T01:07:12.128Z,69.02
2019-04-03T01:09:38.882Z,69.14
2019-04-03T01:12:05.610Z,68.85
2019-04-03T01:14:32.360Z,69.28
2019-04-03T01:16:59.334Z,69.28
2019-04-03T01:19:26.093Z,70.04
2019-04-03T01:21:52.820Z,69.58
2019-04-03T01:24:19.725Z,71.47
2019-04-03T01:26:46.341Z,72.50
2019-04-03T01:29:13.115Z,73.85
2019-04-03T01:31:39.854Z,74.86
2019-04-03T01:34:06.577Z,73.37
2019-04-03T01:36:33.326Z,75.65
2019-04-03T01:39:00.062Z,76.84
2019-04-03T01:41:26.929Z,76.79
2019-04-03T01:43:54.261Z,76.87
2019-04-03T01:46:20.292Z,77.73
2019-04-03T01:48:47.015Z,76.85
2019-04-03T01:51:13.754Z,77.29
2019-04-03T01:53:40.510Z,77.59
2019-04-03T01:56:07.243Z,77.55
2019-04-03T01:58:35.983Z,76.94
2019-04-03T02:01:00.718Z,78.11
2019-04-03T02:03:27.457Z,78.18
2019-04-03T02:05:54.239Z,77.21
2019-04-03T02:08:20.970Z,77.07
2019-04-03T02:10:48.922Z,77.05
2019-04-03T02:13:14.461Z,77.22
2019-04-03T02:15:41.198Z,77.56
2019-04-03T02:18:07.927Z,77.88
2019-04-03T02:20:34.667Z,78.65
2019-04-03T02:23:01.394Z,77.87
2019-04-03T02:25:28.154Z,78.59
2019-04-03T02:27:54.937Z,78.55
2019-04-03T02:30:21.699Z,78.04
2019-04-03T02:32:48.501Z,78.08
2019-04-03T02:35:15.175Z,79.38
2019-04-03T02:37:41.916Z,79.34
2019-04-03T02:40:08.695Z,78.99
2019-04-03T02:42:35.422Z,80.98
2019-04-03T02:45:02.346Z,80.43
2019-04-03T02:47:32.439Z,80.04
2019-04-03T02:49:55.826Z,80.99
2019-04-03T02:52:25.349Z,80.04
2019-04-03T02:54:49.280Z,80.05
2019-04-03T02:57:17.476Z,79.75
2019-04-03T02:59:42.712Z,80.63
2019-04-03T03:02:11.830Z,81.13
2019-04-03T03:04:36.267Z,79.82
2019-04-03T03:07:04.828Z,80.79
2019-04-03T03:09:30.239Z,79.88
2019-04-03T03:11:57.257Z,80.01
2019-04-03T03:14:24.019Z,80.65
2019-04-03T03:16:51.115Z,80.45
2019-04-03T03:19:17.294Z,81.08
2019-04-03T03:21:45.372Z,80.59
2019-04-03T03:24:10.742Z,80.16
2019-04-03T03:26:37.848Z,80.07
2019-04-03T03:29:16.515Z,80.90
2019-04-03T03:31:59.845Z,80.49
2019-04-03T03:34:03.034Z,81.73
2019-04-03T03:36:26.459Z,81.03
2019-04-03T03:38:51.627Z,80.86
2019-04-03T03:41:22.065Z,81.73
2019-04-03T03:43:45.336Z,81.61
2019-04-03T03:46:12.265Z,81.96
2019-04-03T03:48:42.478Z,82.64
2019-04-03T03:51:05.754Z,82.20
2019-04-03T03:53:32.675Z,83.54
2019-04-03T03:56:00.144Z,82.63
2019-04-03T03:58:26.888Z,83.13
2019-04-03T04:00:57.968Z,82.96
2019-04-03T04:03:20.379Z,82.87
2019-04-03T04:05:47.162Z,83.79
2019-04-03T04:08:14.042Z,83.29
2019-04-03T04:10:41.046Z,81.46
2019-04-03T04:13:07.584Z,82.50
2019-04-03T04:15:34.391Z,82.37
2019-04-03T04:18:01.373Z,83.10
2019-04-03T04:20:28.039Z,82.60
2019-04-03T04:22:55.113Z,82.84
2019-04-03T04:25:21.591Z,83.33
2019-04-03T04:27:48.341Z,81.69
2019-04-03T04:30:17.386Z,83.09
2019-04-03T04:32:45.708Z,83.12
2019-04-03T04:35:11.264Z,82.43
2019-04-03T04:37:40.064Z,80.34
2019-04-03T04:40:04.174Z,79.53
2019-04-03T04:42:31.334Z,82.48
2019-04-03T04:44:57.859Z,79.85
2019-04-03T04:47:24.658Z,82.00
2019-04-03T04:49:53.098Z,83.42
2019-04-03T04:52:18.109Z,83.22
2019-04-03T04:54:44.727Z,83.37
2019-04-03T04:57:11.475Z,83.90
2019-04-03T04:59:38.198Z,83.80
2019-04-03T05:02:04.950Z,83.17
2019-04-03T05:04:31.697Z,80.87
2019-04-03T05:07:00.154Z,83.51
2019-04-03T05:09:25.158Z,83.43
2019-04-03T05:11:51.899Z,82.60
2019-04-03T05:14:18.762Z,83.41
2019-04-03T05:16:45.602Z,83.43
2019-04-03T05:19:17.937Z,84.74
2019-04-03T05:21:38.873Z,83.83
2019-04-03T05:24:13.169Z,85.21
2019-04-03T05:26:32.823Z,84.09
2019-04-03T05:28:59.093Z,85.22
2019-04-03T05:31:25.842Z,82.75
2019-04-03T05:33:52.561Z,81.28
2019-04-03T05:36:19.302Z,83.85
2019-04-03T05:38:46.030Z,81.49
2019-04-03T05:41:12.822Z,80.82
2019-04-03T05:43:39.545Z,80.50
2019-04-03T05:46:06.386Z,81.21
2019-04-03T05:48:33.010Z,82.50
2019-04-03T05:50:59.742Z,82.32
2019-04-03T05:53:26.492Z,83.12
2019-04-03T05:55:53.219Z,80.76
2019-04-03T05:58:19.964Z,81.70
2019-04-03T06:00:46.911Z,80.26
2019-04-03T06:03:13.561Z,81.60
2019-04-03T06:05:40.134Z,80.45
2019-04-03T06:08:06.982Z,81.95
2019-04-03T06:10:36.623Z,82.48
2019-04-03T06:13:00.590Z,83.26
2019-04-03T06:15:27.341Z,83.90
2019-04-03T06:17:55.166Z,82.00
2019-04-03T06:20:20.818Z,83.26
2019-04-03T06:22:49.255Z,82.86
2019-04-03T06:25:14.528Z,82.66
2019-04-03T06:27:43.020Z,82.25
2019-04-03T06:30:07.734Z,83.87
2019-04-03T06:32:34.478Z,84.02
2019-04-03T06:35:01.213Z,84.35
2019-04-03T06:37:27.966Z,85.02
2019-04-03T06:39:54.687Z,85.14
2019-04-03T06:42:21.437Z,85.36
2019-04-03T06:44:48.446Z,85.64
2019-04-03T06:47:15.000Z,86.21
2019-04-03T06:49:41.638Z,85.69
2019-04-03T06:52:08.378Z,85.59
2019-04-03T06:54:35.221Z,86.91
2019-04-03T06:57:02.088Z,87.25
2019-04-03T06:59:28.571Z,86.66
2019-04-03T07:01:55.303Z,84.09
2019-04-03T07:04:22.034Z,85.51
2019-04-03T07:06:48.877Z,85.65
2019-04-03T07:09:22.375Z,86.15
2019-04-03T07:11:43.519Z,86.15
2019-04-03T07:14:09.143Z,87.58
2019-04-03T07:16:38.080Z,89.67
2019-04-03T07:19:02.623Z,90.75
2019-04-03T07:21:29.358Z,91.94
2019-04-03T07:23:56.108Z,93.03
2019-04-03T07:26:22.845Z,93.06
2019-04-03T07:28:49.564Z,92.43
2019-04-03T07:31:16.477Z,93.43
2019-04-03T07:33:43.059Z,92.81
2019-04-03T07:36:11.582Z,93.18
2019-04-03T07:38:36.550Z,93.38
2019-04-03T07:41:04.007Z,91.60
2019-04-03T07:43:30.723Z,90.74
2019-04-03T07:45:57.458Z,90.18
2019-04-03T07:48:24.198Z,88.92
2019-04-03T07:50:50.950Z,90.08
2019-04-03T07:53:19.656Z,90.12
2019-04-03T07:55:44.438Z,91.36
2019-04-03T07:58:11.162Z,90.43
2019-04-03T08:00:38.504Z,89.38
2019-04-03T08:03:04.665Z,88.87
2019-04-03T08:05:31.689Z,87.80
2019-04-03T08:07:58.087Z,87.81
2019-04-03T08:10:24.810Z,88.45
2019-04-03T08:12:51.550Z,87.68
2019-04-03T08:15:18.283Z,87.13
2019-04-03T08:17:45.022Z,86.97
2019-04-03T08:20:11.753Z,87.23
2019-04-03T08:22:38.517Z,89.37
2019-04-03T08:25:05.650Z,92.09
2019-04-03T08:27:32.406Z,92.51
2019-04-03T08:29:59.130Z,92.81
2019-04-03T08:32:25.899Z,89.63
2019-04-03T08:34:52.621Z,89.79
2019-04-03T08:37:29.764Z,90.19
2019-04-03T08:39:48.543Z,89.32
2019-04-03T08:42:12.842Z,89.82
2019-04-03T08:44:39.814Z,89.43
2019-04-03T08:47:06.583Z,90.87
2019-04-03T08:49:33.054Z,91.17
2019-04-03T08:51:59.790Z,91.13
2019-04-03T08:54:26.529Z,90.34
2019-04-03T08:56:53.246Z,89.19
2019-04-03T08:59:19.995Z,88.11
2019-04-03T09:01:46.983Z,88.20
2019-04-03T09:04:14.853Z,90.41
2019-04-03T09:06:40.222Z,88.68
2019-04-03T09:09:08.699Z,89.22
2019-04-03T09:11:36.276Z,88.42
2019-04-03T09:14:02.165Z,87.18
2019-04-03T09:16:31.196Z,88.60
2019-04-03T09:18:55.713Z,87.83
2019-04-03T09:21:22.377Z,87.69
2019-04-03T09:23:49.118Z,88.52
2019-04-03T09:26:15.849Z,87.50
2019-04-03T09:28:42.895Z,88.16
2019-04-03T09:31:09.328Z,86.86
2019-04-03T09:33:36.085Z,86.75
2019-04-03T09:36:04.360Z,87.61
2019-04-03T09:38:29.718Z,87.45
2019-04-03T09:40:56.322Z,88.61
2019-04-03T09:43:23.247Z,86.97
2019-04-03T09:45:49.811Z,86.59
2019-04-03T09:48:16.620Z,87.46
2019-04-03T09:50:45.637Z,87.50
2019-04-03T09:53:10.310Z,87.63
2019-04-03T09:55:37.600Z,86.65
2019-04-03T09:58:04.294Z,86.25
2019-04-03T10:00:30.746Z,83.85
2019-04-03T10:02:57.513Z,83.89
2019-04-03T10:05:24.154Z,82.31
2019-04-03T10:07:50.738Z,85.18
2019-04-03T10:10:17.458Z,84.01
2019-04-03T10:12:47.614Z,82.77
2019-04-03T10:15:11.014Z,81.72
2019-04-03T10:17:38.564Z,80.76
2019-04-03T10:20:05.372Z,80.92
2019-04-03T10:22:31.846Z,80.95
2019-04-03T10:25:00.579Z,80.84
2019-04-03T10:27:25.759Z,81.43
2019-04-03T10:29:55.011Z,81.60
2019-04-03T10:32:18.800Z,78.32
2019-04-03T10:34:45.773Z,77.70
2019-04-03T10:37:14.425Z,79.75
2019-04-03T10:39:43.625Z,79.44
2019-04-03T10:42:05.844Z,80.31
2019-04-03T10:44:32.514Z,79.74
2019-04-03T10:46:59.242Z,79.61
2019-04-03T10:49:26.136Z,79.51
2019-04-03T10:51:52.941Z,78.47
2019-04-03T10:54:19.469Z,78.95
2019-04-03T10:56:46.324Z,77.07
2019-04-03T10:59:13.916Z,78.36
2019-04-03T11:01:40.039Z,77.93
2019-04-03T11:04:06.706Z,78.80
2019-04-03T11:06:35.286Z,78.00
2019-04-03T11:09:00.110Z,78.99
2019-04-03T11:11:28.728Z,77.37
2019-04-03T11:13:54.301Z,78.43
2019-04-03T11:16:20.661Z,77.86
2019-04-03T11:18:58.064Z,78.33
2019-04-03T11:21:14.882Z,78.28
2019-04-03T11:23:44.798Z,78.57
2019-04-03T11:26:08.477Z,78.69
2019-04-03T11:28:37.559Z,77.50
2019-04-03T11:31:02.598Z,78.37
2019-04-03T11:33:29.339Z,77.06
2019-04-03T11:35:56.405Z,79.52
2019-04-03T11:38:27.905Z,78.49
2019-04-03T11:40:50.831Z,79.44
2019-04-03T11:43:17.424Z,78.79
2019-04-03T11:45:44.076Z,79.39
2019-04-03T11:48:10.715Z,78.65
2019-04-03T11:50:39.407Z,77.31
2019-04-03T11:53:06.997Z,78.56
2019-04-03T11:55:31.038Z,76.93
2019-04-03T11:57:57.704Z,77.03
2019-04-03T12:00:28.799Z,79.29
2019-04-03T12:02:55.627Z,77.29
2019-04-03T12:05:22.247Z,79.15
2019-04-03T12:07:48.990Z,78.53
2019-04-03T12:10:15.749Z,78.65
2019-04-03T12:12:42.904Z,77.67
2019-04-03T12:15:09.705Z,76.64
2019-04-03T12:17:36.100Z,78.32
2019-04-03T12:20:03.586Z,79.80
2019-04-03T12:22:30.570Z,80.06
2019-04-03T12:24:57.484Z,80.87
2019-04-03T12:27:24.219Z,79.57
2019-04-03T12:29:53.870Z,81.47
2019-04-03T12:32:17.456Z,83.55
2019-04-03T12:34:44.222Z,84.95
2019-04-03T12:37:10.961Z,84.29
2019-04-03T12:39:37.774Z,85.01
2019-04-03T12:42:04.723Z,83.37
2019-04-03T12:44:31.250Z,84.75
2019-04-03T12:46:58.024Z,85.55
2019-04-03T12:49:24.746Z,85.60
2019-04-03T12:51:51.514Z,86.54
2019-04-03T12:54:20.627Z,85.28
2019-04-03T12:56:45.001Z,82.41
2019-04-03T12:59:11.742Z,80.70
2019-04-03T13:01:38.911Z,82.42
2019-04-03T13:04:05.219Z,82.56
2019-04-03T13:06:31.958Z,82.61
2019-04-03T13:08:58.754Z,82.75
2019-04-03T13:11:25.533Z,82.10
2019-04-03T13:13:52.545Z,79.70
2019-04-03T13:16:21.800Z,79.81
2019-04-03T13:18:45.691Z,81.30
2019-04-03T13:21:12.442Z,79.74
2019-04-03T13:23:39.174Z,79.36
2019-04-03T13:26:06.296Z,77.79
2019-04-03T13:28:33.470Z,78.37
2019-04-03T13:30:59.599Z,79.57
2019-04-03T13:33:26.118Z,80.95
2019-04-03T13:35:52.901Z,81.20
2019-04-03T13:38:19.668Z,81.71
2019-04-03T13:40:46.338Z,81.75
2019-04-03T13:43:13.117Z,82.09
2019-04-03T13:45:40.035Z,82.84
2019-04-03T13:48:06.611Z,82.28
2019-04-03T13:50:33.701Z,81.76
2019-04-03T13:53:00.380Z,82.03
2019-04-03T13:55:28.854Z,81.55
2019-04-03T13:57:53.612Z,82.62
2019-04-03T14:00:23.024Z,81.73
2019-04-03T14:02:47.243Z,81.35
2019-04-03T14:05:14.099Z,81.52
2019-04-03T14:07:41.875Z,82.34
2019-04-03T14:10:07.708Z,80.69
2019-04-03T14:12:36.534Z,82.25
2019-04-03T14:15:04.066Z,82.44
2019-04-03T14:17:28.230Z,83.68
2019-04-03T14:19:54.672Z,84.83
2019-04-03T14:22:21.551Z,85.54
2019-04-03T14:24:52.092Z,85.48
2019-04-03T14:27:21.958Z,85.99
2019-04-03T14:29:41.726Z,86.44
2019-04-03T14:32:08.306Z,86.09
2019-04-03T14:34:35.034Z,85.83
2019-04-03T14:37:01.841Z,86.35
2019-04-03T14:39:28.677Z,87.38
2019-04-03T14:41:55.534Z,88.89
2019-04-03T14:44:22.015Z,87.95
2019-04-03T14:46:50.743Z,89.41
2019-04-03T14:49:15.502Z,89.55
2019-04-03T14:51:43.539Z,90.22
2019-04-03T14:54:09.102Z,90.39
2019-04-03T14:56:36.016Z,91.25
2019-04-03T14:59:02.653Z,90.80
2019-04-03T15:01:29.258Z,91.70
2019-04-03T15:03:59.962Z,93.63
2019-04-03T15:06:23.706Z,92.77
2019-04-03T15:08:53.853Z,92.83
2019-04-03T15:11:17.283Z,92.97
2019-04-03T15:13:44.595Z,93.04
2019-04-03T15:16:10.969Z,93.59
2019-04-03T15:18:37.584Z,94.89
2019-04-03T15:21:04.361Z,94.75
2019-04-03T15:23:31.107Z,94.45
2019-04-03T15:25:57.850Z,93.57
2019-04-03T15:28:24.608Z,92.98
2019-04-03T15:30:51.528Z,92.69
2019-04-03T15:33:18.378Z,93.28
2019-04-03T15:35:44.823Z,95.17
2019-04-03T15:38:13.454Z,93.87
2019-04-03T15:40:38.485Z,92.62
2019-04-03T15:43:05.105Z,94.32
2019-04-03T15:45:32.077Z,92.50
2019-04-03T15:47:59.121Z,91.95
2019-04-03T15:50:27.427Z,91.39
2019-04-03T15:52:52.285Z,91.26
2019-04-03T15:55:18.846Z,90.87
2019-04-03T15:57:45.604Z,91.39
2019-04-03T16:00:12.574Z,92.31
2019-04-03T16:02:39.241Z,91.12
2019-04-03T16:05:06.291Z,90.49
2019-04-03T16:07:33.539Z,91.97
2019-04-03T16:09:59.403Z,91.61
2019-04-03T16:12:26.234Z,91.49
2019-04-03T16:14:53.118Z,91.05
2019-04-03T16:17:20.025Z,92.72
2019-04-03T16:19:46.481Z,93.62
2019-04-03T16:22:13.644Z,91.79
2019-04-03T16:24:43.114Z,91.37
2019-04-03T16:27:07.968Z,92.43
2019-04-03T16:29:33.602Z,91.89
2019-04-03T16:32:00.189Z,92.08
2019-04-03T16:34:26.982Z,90.62
2019-04-03T16:36:53.719Z,91.30
2019-04-03T16:39:20.481Z,92.19
2019-04-03T16:41:47.350Z,92.13
2019-04-03T16:44:14.027Z,91.64
2019-04-03T16:46:41.683Z,92.46
2019-04-03T16:49:07.828Z,92.80
2019-04-03T16:51:34.378Z,92.36
2019-04-03T16:54:01.202Z,92.51
2019-04-03T16:56:27.942Z,91.49
2019-04-03T16:58:54.706Z,91.57
2019-04-03T17:01:21.439Z,91.61
2019-04-03T17:03:48.194Z,91.92
2019-04-03T17:06:15.864Z,91.87
2019-04-03T17:08:42.307Z,91.41
2019-04-03T17:11:11.295Z,92.22
2019-04-03T17:13:35.351Z,91.30
2019-04-03T17:16:02.450Z,92.45
2019-04-03T17:18:29.063Z,92.73
2019-04-03T17:20:56.960Z,92.28
2019-04-03T17:23:23.250Z,92.08
2019-04-03T17:25:51.608Z,91.84
2019-04-03T17:28:16.434Z,91.36
2019-04-03T17:30:43.257Z,90.89
2019-04-03T17:33:10.655Z,90.82
2019-04-03T17:35:36.933Z,90.72
2019-04-03T17:38:03.839Z,91.38
2019-04-03T17:40:30.703Z,91.59
2019-04-03T17:42:57.468Z,90.95
2019-04-03T17:45:24.279Z,92.22
2019-04-03T17:47:53.889Z,92.68
2019-04-03T17:50:17.968Z,91.85
2019-04-03T17:52:44.742Z,89.85
2019-04-03T17:55:11.547Z,91.05
2019-04-03T17:57:38.433Z,90.93
2019-04-03T18:00:07.768Z,91.94
2019-04-03T18:02:34.970Z,91.97
2019-04-03T18:05:01.783Z,90.81
2019-04-03T18:07:29.017Z,90.59
2019-04-03T18:09:55.488Z,90.92
2019-04-03T18:12:22.322Z,90.63
2019-04-03T18:14:50.086Z,89.77
2019-04-03T18:17:19.216Z,90.46
2019-04-03T18:19:43.787Z,90.42
2019-04-03T18:22:10.643Z,91.10
2019-04-03T18:24:37.431Z,91.21
2019-04-03T18:27:06.571Z,90.71
2019-04-03T18:29:32.060Z,89.99
2019-04-03T18:31:58.894Z,90.24
2019-04-03T18:34:25.752Z,89.37
2019-04-03T18:36:52.591Z,90.77
2019-04-03T18:39:19.441Z,90.53
2019-04-03T18:41:47.834Z,90.96
2019-04-03T18:46:39.865Z,90.59
2019-04-03T18:47:15.961Z,90.24
2019-04-03T18:49:06.617Z,90.89
2019-04-03T18:51:36.425Z,90.67
2019-04-03T18:54:00.223Z,89.71
2019-04-03T18:56:27.042Z,88.07
2019-04-03T18:58:55.106Z,89.22
2019-04-03T19:01:20.705Z,87.56
2019-04-03T19:03:47.585Z,89.14
2019-04-03T19:06:14.393Z,90.29
2019-04-03T19:08:41.291Z,88.16
2019-04-03T19:11:09.682Z,89.54
2019-04-03T19:13:34.849Z,90.41
2019-04-03T19:16:02.384Z,90.49
2019-04-03T19:18:28.518Z,90.70
2019-04-03T19:20:55.330Z,90.60
2019-04-03T19:23:22.206Z,90.90
2019-04-03T19:25:49.030Z,90.78
2019-04-03T19:28:15.891Z,89.49
2019-04-03T19:30:42.710Z,89.51
2019-04-03T19:33:09.583Z,90.75
2019-04-03T19:35:36.415Z,92.16
2019-04-03T19:38:04.944Z,91.09
2019-04-03T19:40:30.118Z,90.29
2019-04-03T19:42:56.943Z,91.06
2019-04-03T19:45:23.696Z,91.77
2019-04-03T19:47:50.598Z,89.68
2019-04-03T19:50:17.447Z,91.28
2019-04-03T19:52:44.190Z,90.71
2019-04-03T19:55:11.038Z,91.14
2019-04-03T19:57:37.862Z,91.51
2019-04-03T20:00:04.824Z,91.87
2019-04-03T20:02:31.741Z,92.08
2019-04-03T20:04:58.519Z,91.84
2019-04-03T20:07:26.767Z,91.16
2019-04-03T20:09:52.146Z,92.54
2019-04-03T20:12:18.982Z,89.96
2019-04-03T20:14:57.529Z,90.78
2019-04-03T20:17:12.598Z,90.06
2019-04-03T20:19:39.466Z,91.09
2019-04-03T20:22:07.021Z,90.63
2019-04-03T20:24:33.158Z,90.21
2019-04-03T20:27:00.704Z,91.59
2019-04-03T20:29:30.328Z,90.36
2019-04-03T20:31:54.222Z,90.92
2019-04-03T20:34:20.973Z,91.11
2019-04-03T20:36:50.660Z,89.53
2019-04-03T20:39:14.510Z,90.02
2019-04-03T20:41:41.247Z,90.50
2019-04-03T20:44:07.991Z,91.04
2019-04-03T20:46:34.753Z,91.85
2019-04-03T20:49:03.061Z,91.71
2019-04-03T20:51:28.240Z,91.12
2019-04-03T20:53:54.983Z,92.32
2019-04-03T20:56:21.734Z,92.48
2019-04-03T20:58:55.694Z,91.17
2019-04-03T21:01:15.195Z,92.80
2019-04-03T21:03:43.738Z,92.77
2019-04-03T21:06:08.850Z,92.94
2019-04-03T21:08:35.612Z,93.06
2019-04-03T21:11:02.822Z,92.47
2019-04-03T21:13:29.070Z,92.78
2019-04-03T21:15:56.835Z,93.24
2019-04-03T21:18:23.619Z,92.67
2019-04-03T21:20:50.430Z,92.82
2019-04-03T21:23:17.186Z,94.26
2019-04-03T21:25:43.923Z,94.88
2019-04-03T21:28:10.967Z,94.89
2019-04-03T21:30:37.398Z,94.12
2019-04-03T21:33:04.139Z,95.03
2019-04-03T21:35:30.934Z,94.94
2019-04-03T21:37:57.677Z,95.30
2019-04-03T21:40:24.455Z,95.98
2019-04-03T21:42:51.186Z,96.27
2019-04-03T21:45:17.934Z,95.31
2019-04-03T21:47:44.654Z,94.56
2019-04-03T21:50:11.419Z,94.08
2019-04-03T21:52:38.174Z,94.14
2019-04-03T21:55:05.782Z,95.09
2019-04-03T21:57:32.503Z,95.59
2019-04-03T21:59:59.277Z,95.63
2019-04-03T22:02:26.006Z,96.17
2019-04-03T22:04:53.848Z,96.30
2019-04-03T22:07:19.626Z,97.37
2019-04-03T22:09:46.380Z,96.28
2019-04-03T22:12:13.129Z,95.23
2019-04-03T22:14:42.599Z,95.14
2019-04-03T22:17:06.618Z,94.71
2019-04-03T22:19:33.389Z,93.46
2019-04-03T22:22:01.072Z,92.63
2019-04-03T22:24:26.834Z,93.30
2019-04-03T22:26:53.578Z,93.05
2019-04-03T22:29:20.599Z,93.12
2019-04-03T22:31:47.062Z,92.44
2019-04-03T22:34:13.790Z,93.59
2019-04-03T22:36:40.530Z,93.14
2019-04-03T22:39:08.111Z,93.42
2019-04-03T22:41:34.011Z,94.26
2019-04-03T22:44:00.786Z,92.95
2019-04-03T22:46:28.072Z,93.58
2019-04-03T22:48:54.826Z,94.69
2019-04-03T22:51:21.653Z,93.64
2019-04-03T22:53:48.319Z,94.55
2019-04-03T22:56:16.923Z,93.86
2019-04-03T22:58:41.790Z,93.87
2019-04-03T23:01:08.550Z,92.79
2019-04-03T23:03:35.289Z,93.56
2019-04-03T23:06:02.053Z,93.80
2019-04-03T23:08:28.799Z,96.05
2019-04-03T23:10:55.597Z,96.10
2019-04-03T23:13:22.379Z,95.00
2019-04-03T23:15:49.149Z,94.72
2019-04-03T23:18:16.477Z,96.14
2019-04-03T23:20:43.688Z,95.36
2019-04-03T23:23:10.526Z,95.30
2019-04-03T23:25:37.297Z,94.83
2019-04-03T23:28:04.100Z,93.79
2019-04-03T23:30:30.887Z,93.46
2019-04-03T23:32:57.678Z,91.79
2019-04-03T23:35:24.447Z,93.36
2019-04-03T23:37:51.258Z,93.09
2019-04-03T23:40:18.043Z,92.76
2019-04-03T23:42:44.857Z,93.70
2019-04-03T23:45:12.857Z,92.82
2019-04-03T23:47:38.426Z,92.15
2019-04-03T23:50:05.194Z,92.31
2019-04-03T23:52:31.987Z,93.95
2019-04-03T23:54:58.750Z,93.70
2019-04-03T23:57:25.533Z,93.09
2019-04-03T23:59:52.298Z,94.00
